Time;durP1;ratioP1;P1;durP2;ratioP2;P2;SDS_P1;SDS_P2;PMS_P1;PMS_P2;Temp;Humidity;BMP_temperature;BMP_pressure;BME280_temperature;BME280_humidity;BME280_pressure;Samples;Min_cycle;Max_cycle;Signal;HPM_P1;HPM_P2
2023/01/21 00:02:24;;;;;;;;;;;3.00;93.10;;;;;;5003132;28;19934;-77
2023/01/21 00:04:51;;;;;;;;;;;3.00;93.10;;;;;;5007321;28;19989;-77
2023/01/21 00:07:17;;;;;;;;;;;3.00;93.30;;;;;;5004726;28;19940;-78
2023/01/21 00:09:44;;;;;;;;;;;3.00;93.20;;;;;;5009437;28;19936;-78
2023/01/21 00:12:10;;;;;;;;;;;3.00;93.20;;;;;;5002427;28;20387;-77
2023/01/21 00:14:37;;;;;;;;;;;2.90;93.20;;;;;;5010757;28;19933;-77
2023/01/21 00:17:05;;;;;;;;;;;2.90;93.20;;;;;;5008199;28;20659;-78
2023/01/21 00:19:32;;;;;;;;;;;3.00;93.30;;;;;;5010517;28;19972;-77
2023/01/21 00:21:58;;;;;;;;;;;2.90;93.20;;;;;;5001438;28;19929;-77
2023/01/21 00:24:25;;;;;;;;;;;3.00;93.30;;;;;;5003749;28;20713;-78
2023/01/21 00:26:52;;;;;;;;;;;2.90;93.30;;;;;;4998863;28;19926;-77
2023/01/21 00:29:19;;;;;;;;;;;2.90;93.30;;;;;;5005313;28;19929;-77
2023/01/21 00:31:45;;;;;;;;;;;3.00;93.30;;;;;;5009121;28;20058;-78
2023/01/21 00:34:13;;;;;;;;;;;2.90;93.30;;;;;;5008066;28;19954;-77
2023/01/21 00:36:40;;;;;;;;;;;2.90;93.30;;;;;;5005606;28;20395;-77
2023/01/21 00:39:06;;;;;;;;;;;2.90;93.30;;;;;;5010884;28;19936;-76
2023/01/21 00:41:33;;;;;;;;;;;2.90;93.40;;;;;;5009545;28;19933;-77
2023/01/21 00:43:59;;;;;;;;;;;2.90;93.40;;;;;;5009968;28;19940;-77
2023/01/21 00:46:26;;;;;;;;;;;2.90;93.40;;;;;;5011349;28;20001;-77
2023/01/21 00:48:54;;;;;;;;;;;2.90;93.40;;;;;;5005409;28;19995;-77
2023/01/21 00:51:22;;;;;;;;;;;2.80;93.40;;;;;;5008736;28;20350;-77
2023/01/21 00:53:49;;;;;;;;;;;2.80;93.40;;;;;;5007766;28;19929;-77
2023/01/21 00:56:15;;;;;;;;;;;2.80;93.40;;;;;;5003969;28;19930;-77
2023/01/21 00:58:43;;;;;;;;;;;2.80;93.40;;;;;;5006950;28;19934;-77
2023/01/21 01:01:10;;;;;;;;;;;2.80;93.40;;;;;;5004311;28;20012;-78
2023/01/21 01:03:37;;;;;;;;;;;2.80;93.40;;;;;;5005832;28;19936;-78
2023/01/21 01:06:04;;;;;;;;;;;2.80;93.50;;;;;;5007784;28;19929;-77
2023/01/21 01:08:32;;;;;;;;;;;2.80;93.50;;;;;;5004642;28;19933;-77
2023/01/21 01:10:59;;;;;;;;;;;2.80;93.50;;;;;;5004806;28;19929;-78
2023/01/21 01:13:26;;;;;;;;;;;2.80;93.40;;;;;;5007106;28;19937;-78
2023/01/21 01:15:54;;;;;;;;;;;2.80;93.50;;;;;;5005460;28;19933;-77
2023/01/21 01:18:21;;;;;;;;;;;2.70;93.40;;;;;;5010641;28;19936;-78
2023/01/21 01:20:48;;;;;;;;;;;2.70;93.40;;;;;;5006763;28;19963;-78
2023/01/21 01:23:14;;;;;;;;;;;2.70;93.40;;;;;;5009677;28;20459;-78
2023/01/21 01:25:42;;;;;;;;;;;2.70;93.40;;;;;;5006981;28;20540;-77
2023/01/21 01:28:09;;;;;;;;;;;2.70;93.40;;;;;;5004289;28;19934;-77
2023/01/21 01:30:36;;;;;;;;;;;2.70;93.40;;;;;;5006357;28;20577;-78
2023/01/21 01:33:02;;;;;;;;;;;2.70;93.40;;;;;;5006951;28;19941;-77
2023/01/21 01:35:29;;;;;;;;;;;2.70;93.40;;;;;;5006866;28;19937;-77
2023/01/21 01:37:55;;;;;;;;;;;2.60;93.40;;;;;;5007608;28;19963;-78
2023/01/21 01:40:22;;;;;;;;;;;2.60;93.40;;;;;;5005913;28;19972;-78
2023/01/21 01:42:49;;;;;;;;;;;2.60;93.40;;;;;;5003651;28;20007;-78
2023/01/21 01:45:17;;;;;;;;;;;2.60;93.40;;;;;;5005851;28;19933;-77
2023/01/21 01:47:45;;;;;;;;;;;2.60;93.40;;;;;;5003205;28;19950;-77
2023/01/21 01:50:12;;;;;;;;;;;2.60;93.50;;;;;;5005529;28;19929;-78
2023/01/21 01:52:40;;;;;;;;;;;2.60;93.50;;;;;;5005467;28;19933;-78
2023/01/21 01:55:07;;;;;;;;;;;2.60;93.50;;;;;;5008642;28;19932;-77
2023/01/21 01:57:34;;;;;;;;;;;2.60;93.50;;;;;;5000121;28;19925;-77
2023/01/21 02:00:05;;;;;;;;;;;2.50;93.40;;;;;;5000266;28;19937;-77
2023/01/21 02:02:32;;;;;;;;;;;2.60;93.50;;;;;;5003637;28;19933;-78
2023/01/21 02:05:01;;;;;;;;;;;2.50;93.40;;;;;;5006407;28;20400;-76
2023/01/21 02:07:31;;;;;;;;;;;2.50;93.40;;;;;;5009253;28;19929;-78
2023/01/21 02:09:58;;;;;;;;;;;2.50;93.40;;;;;;4999548;28;19940;-79
2023/01/21 02:12:25;;;;;;;;;;;2.50;93.40;;;;;;5001172;28;19934;-77
2023/01/21 02:14:52;;;;;;;;;;;2.50;93.50;;;;;;5008451;28;19944;-78
2023/01/21 02:17:26;;;;;;;;;;;2.50;93.50;;;;;;5006951;28;19933;-78
2023/01/21 02:20:03;;;;;;;;;;;2.50;93.50;;;;;;5008998;28;19929;-77
2023/01/21 02:22:34;;;;;;;;;;;2.50;93.50;;;;;;5002856;28;19933;-77
2023/01/21 02:25:24;;;;;;;;;;;2.50;93.50;;;;;;5005033;28;19936;-77
2023/01/21 02:28:06;;;;;;;;;;;2.50;93.50;;;;;;4992355;28;19933;-77
2023/01/21 02:30:46;;;;;;;;;;;2.40;93.50;;;;;;5007190;28;19936;-78
2023/01/21 02:33:36;;;;;;;;;;;2.40;93.50;;;;;;5006815;28;19937;-77
2023/01/21 02:36:09;;;;;;;;;;;2.40;93.50;;;;;;4993987;28;19940;-77
2023/01/21 02:38:39;;;;;;;;;;;2.40;93.50;;;;;;5004401;28;20024;-77
2023/01/21 02:41:11;;;;;;;;;;;2.40;93.50;;;;;;5001750;28;19933;-77
2023/01/21 02:43:42;;;;;;;;;;;2.40;93.50;;;;;;5006400;28;19951;-77
2023/01/21 02:46:13;;;;;;;;;;;2.30;93.40;;;;;;5003561;28;19987;-78
2023/01/21 02:48:41;;;;;;;;;;;2.30;93.40;;;;;;5004895;28;19929;-77
2023/01/21 02:51:11;;;;;;;;;;;2.30;93.40;;;;;;5004176;28;20879;-77
2023/01/21 02:53:38;;;;;;;;;;;2.30;93.40;;;;;;5007309;28;19936;-79
2023/01/21 02:56:07;;;;;;;;;;;2.30;93.40;;;;;;4998131;28;19937;-77
2023/01/21 02:58:37;;;;;;;;;;;2.30;93.40;;;;;;5001609;28;19976;-77
2023/01/21 03:01:09;;;;;;;;;;;2.30;93.40;;;;;;4999869;28;19940;-78
2023/01/21 03:03:42;;;;;;;;;;;2.20;93.40;;;;;;5010058;28;19932;-77
2023/01/21 03:06:28;;;;;;;;;;;2.20;93.50;;;;;;5002286;28;20010;-77
2023/01/21 03:08:59;;;;;;;;;;;2.20;93.30;;;;;;5003009;28;20019;-77
2023/01/21 03:11:26;;;;;;;;;;;2.20;93.30;;;;;;4998594;28;20665;-77
2023/01/21 03:16:58;;;;;;;;;;;2.20;93.30;;;;;;5001995;28;20056;-77
2023/01/21 03:19:27;;;;;;;;;;;2.10;93.30;;;;;;5006910;28;20358;-76
2023/01/21 03:21:55;;;;;;;;;;;2.10;93.30;;;;;;5003933;28;19929;-78
2023/01/21 03:24:24;;;;;;;;;;;2.10;93.30;;;;;;5002455;28;19933;-77
2023/01/21 03:26:51;;;;;;;;;;;2.10;93.30;;;;;;5006768;28;19937;-76
2023/01/21 03:29:21;;;;;;;;;;;2.10;93.30;;;;;;5006243;28;20334;-77
2023/01/21 03:31:50;;;;;;;;;;;2.00;93.30;;;;;;5002671;28;19930;-78
2023/01/21 03:34:18;;;;;;;;;;;2.00;93.30;;;;;;5005316;28;19930;-78
2023/01/21 03:36:47;;;;;;;;;;;2.00;93.30;;;;;;5003511;28;19984;-78
2023/01/21 03:39:16;;;;;;;;;;;2.00;93.30;;;;;;5005782;28;20450;-77
2023/01/21 03:41:43;;;;;;;;;;;2.00;93.30;;;;;;5002690;28;19934;-77
2023/01/21 03:44:10;;;;;;;;;;;2.00;93.30;;;;;;5006004;28;19941;-77
2023/01/21 03:46:37;;;;;;;;;;;2.00;93.30;;;;;;5003523;28;20439;-78
2023/01/21 03:49:05;;;;;;;;;;;1.90;93.30;;;;;;5002865;28;20012;-77
2023/01/21 03:51:34;;;;;;;;;;;1.90;93.30;;;;;;5007021;28;19936;-78
2023/01/21 03:54:00;;;;;;;;;;;1.90;93.30;;;;;;5004469;28;19988;-78
2023/01/21 03:56:27;;;;;;;;;;;1.90;93.30;;;;;;5003519;28;19933;-78
2023/01/21 03:58:55;;;;;;;;;;;1.90;93.30;;;;;;5004465;28;19937;-77
2023/01/21 04:01:22;;;;;;;;;;;1.90;93.30;;;;;;4997655;28;19988;-77
2023/01/21 04:03:49;;;;;;;;;;;1.80;93.30;;;;;;5004000;28;20362;-76
2023/01/21 04:06:16;;;;;;;;;;;1.80;93.30;;;;;;5006328;28;19933;-77
2023/01/21 04:08:42;;;;;;;;;;;1.90;93.30;;;;;;5013458;28;21202;-78
2023/01/21 04:11:09;;;;;;;;;;;1.90;93.30;;;;;;5008383;28;19933;-77
2023/01/21 04:13:35;;;;;;;;;;;1.80;93.30;;;;;;5010910;28;20410;-77
2023/01/21 04:16:04;;;;;;;;;;;1.80;93.30;;;;;;5012214;28;20090;-78
2023/01/21 04:18:30;;;;;;;;;;;1.80;93.30;;;;;;5011756;28;19976;-77
2023/01/21 04:20:57;;;;;;;;;;;1.80;93.30;;;;;;5009669;28;19941;-77
2023/01/21 04:23:23;;;;;;;;;;;1.80;93.30;;;;;;5007581;28;19936;-77
2023/01/21 04:25:50;;;;;;;;;;;1.80;93.30;;;;;;5006317;28;20399;-76
2023/01/21 04:28:17;;;;;;;;;;;1.80;93.30;;;;;;5006609;28;19937;-79
2023/01/21 04:30:44;;;;;;;;;;;1.70;93.30;;;;;;5005365;28;19925;-77
2023/01/21 04:33:12;;;;;;;;;;;1.70;93.30;;;;;;5006954;28;20408;-78
2023/01/21 04:35:38;;;;;;;;;;;1.70;93.30;;;;;;5007757;28;19933;-77
2023/01/21 04:38:05;;;;;;;;;;;1.70;93.30;;;;;;5008763;28;19933;-78
2023/01/21 04:40:32;;;;;;;;;;;1.70;93.30;;;;;;5012217;28;19933;-77
2023/01/21 04:42:58;;;;;;;;;;;1.70;93.30;;;;;;5005691;28;19929;-77
2023/01/21 04:45:25;;;;;;;;;;;1.70;93.30;;;;;;5009762;28;19926;-78
2023/01/21 04:47:51;;;;;;;;;;;1.70;93.30;;;;;;5010881;28;19930;-78
2023/01/21 04:50:19;;;;;;;;;;;1.60;93.30;;;;;;5009184;28;20281;-78
2023/01/21 04:52:46;;;;;;;;;;;1.60;93.30;;;;;;5010156;28;19980;-78
2023/01/21 04:55:12;;;;;;;;;;;1.60;93.30;;;;;;5013663;28;19929;-78
2023/01/21 04:57:39;;;;;;;;;;;1.60;93.30;;;;;;5000963;28;19936;-78
2023/01/21 05:00:06;;;;;;;;;;;1.60;93.30;;;;;;4999664;28;19933;-78
2023/01/21 05:02:33;;;;;;;;;;;1.60;93.30;;;;;;5005927;28;20456;-77
2023/01/21 05:04:59;;;;;;;;;;;1.60;93.30;;;;;;5006762;28;19937;-78
2023/01/21 05:07:27;;;;;;;;;;;1.60;93.30;;;;;;5014488;28;19940;-78
2023/01/21 05:09:54;;;;;;;;;;;1.60;93.30;;;;;;5010662;28;20537;-78
2023/01/21 05:12:20;;;;;;;;;;;1.50;93.30;;;;;;5009162;28;19930;-79
2023/01/21 05:14:47;;;;;;;;;;;1.50;93.30;;;;;;5007313;28;19951;-79
2023/01/21 05:17:13;;;;;;;;;;;1.50;93.30;;;;;;5005209;28;19987;-78
2023/01/21 05:19:40;;;;;;;;;;;1.50;93.30;;;;;;5009504;28;20007;-78
2023/01/21 05:22:06;;;;;;;;;;;1.50;93.30;;;;;;5008408;28;20391;-78
2023/01/21 05:24:34;;;;;;;;;;;1.50;93.30;;;;;;5006029;28;20489;-77
2023/01/21 05:27:01;;;;;;;;;;;1.50;93.30;;;;;;5002184;28;19933;-78
2023/01/21 05:29:27;;;;;;;;;;;1.40;93.20;;;;;;5008525;28;19929;-78
2023/01/21 05:31:54;;;;;;;;;;;1.50;93.30;;;;;;5004438;28;20426;-80
2023/01/21 05:34:20;;;;;;;;;;;1.40;93.20;;;;;;5003982;28;19930;-78
2023/01/21 05:36:47;;;;;;;;;;;1.40;93.20;;;;;;5005114;28;19983;-78
2023/01/21 05:39:13;;;;;;;;;;;1.40;93.20;;;;;;5006084;28;19937;-78
2023/01/21 05:41:41;;;;;;;;;;;1.40;93.20;;;;;;5007566;28;19926;-79
2023/01/21 05:44:08;;;;;;;;;;;1.40;93.20;;;;;;5006502;28;19933;-78
2023/01/21 05:46:35;;;;;;;;;;;1.40;93.20;;;;;;5003641;28;19929;-78
2023/01/21 05:49:01;;;;;;;;;;;1.40;93.20;;;;;;5008170;28;19930;-80
2023/01/21 05:51:28;;;;;;;;;;;1.40;93.10;;;;;;5003869;28;20490;-79
2023/01/21 05:53:54;;;;;;;;;;;1.30;93.00;;;;;;5008777;28;20007;-79
2023/01/21 05:56:21;;;;;;;;;;;1.30;93.00;;;;;;4998901;28;19937;-77
2023/01/21 05:58:49;;;;;;;;;;;1.30;93.00;;;;;;5004925;28;19991;-79
2023/01/21 06:01:15;;;;;;;;;;;1.30;93.00;;;;;;5002398;28;20017;-79
2023/01/21 06:03:42;;;;;;;;;;;1.30;93.00;;;;;;5006775;28;20182;-78
2023/01/21 06:06:08;;;;;;;;;;;1.30;92.90;;;;;;5006580;28;19934;-79
2023/01/21 06:08:35;;;;;;;;;;;1.30;92.90;;;;;;5006088;28;19933;-78
2023/01/21 06:11:01;;;;;;;;;;;1.20;92.90;;;;;;5004798;28;19937;-78
2023/01/21 06:13:28;;;;;;;;;;;1.30;93.00;;;;;;5003566;28;21984;-79
2023/01/21 06:15:56;;;;;;;;;;;1.20;92.90;;;;;;5006883;28;20599;-80
2023/01/21 06:18:23;;;;;;;;;;;1.20;92.90;;;;;;5006032;28;19930;-78
2023/01/21 06:20:50;;;;;;;;;;;1.20;92.90;;;;;;5002166;28;19929;-78
2023/01/21 06:23:16;;;;;;;;;;;1.20;92.90;;;;;;5004824;28;19929;-77
2023/01/21 06:25:43;;;;;;;;;;;1.20;92.90;;;;;;5008182;28;19936;-78
2023/01/21 06:28:10;;;;;;;;;;;1.20;92.90;;;;;;5007129;28;19929;-79
2023/01/21 06:30:37;;;;;;;;;;;1.20;92.90;;;;;;5004480;28;20655;-78
2023/01/21 06:33:05;;;;;;;;;;;1.20;92.90;;;;;;5005407;28;20993;-79
2023/01/21 06:35:31;;;;;;;;;;;1.10;92.90;;;;;;5006790;28;19933;-79
2023/01/21 06:37:58;;;;;;;;;;;1.10;92.90;;;;;;5005691;28;19956;-80
2023/01/21 06:40:25;;;;;;;;;;;1.20;93.00;;;;;;5005721;28;19930;-79
2023/01/21 06:42:52;;;;;;;;;;;1.10;92.90;;;;;;5004399;28;20403;-78
2023/01/21 06:45:19;;;;;;;;;;;1.10;92.90;;;;;;5006910;28;19929;-78
2023/01/21 06:47:45;;;;;;;;;;;1.10;92.90;;;;;;5002866;28;19937;-79
2023/01/21 06:50:14;;;;;;;;;;;1.10;93.00;;;;;;5005012;28;19938;-77
2023/01/21 06:52:42;;;;;;;;;;;1.10;93.00;;;;;;5003223;28;19936;-78
2023/01/21 06:55:09;;;;;;;;;;;1.10;93.00;;;;;;5009371;28;19929;-79
2023/01/21 06:57:37;;;;;;;;;;;1.10;93.30;;;;;;5002892;28;20432;-78
2023/01/21 07:00:04;;;;;;;;;;;1.10;93.00;;;;;;5002855;28;19988;-77
2023/01/21 07:02:31;;;;;;;;;;;1.10;93.00;;;;;;5010108;28;19929;-77
2023/01/21 07:04:57;;;;;;;;;;;1.10;93.00;;;;;;5005527;28;19933;-79
2023/01/21 07:07:25;;;;;;;;;;;1.10;93.10;;;;;;5007588;28;19936;-78
2023/01/21 07:09:51;;;;;;;;;;;1.10;93.10;;;;;;5007112;28;19936;-78
2023/01/21 07:12:18;;;;;;;;;;;1.00;93.00;;;;;;5001209;28;19988;-77
2023/01/21 07:14:45;;;;;;;;;;;1.00;93.10;;;;;;5005298;28;19983;-79
2023/01/21 07:17:11;;;;;;;;;;;1.00;93.10;;;;;;5001420;28;19925;-78
2023/01/21 07:19:38;;;;;;;;;;;1.00;93.10;;;;;;5008406;28;19937;-78
2023/01/21 07:22:04;;;;;;;;;;;1.00;93.10;;;;;;5003802;28;20458;-78
2023/01/21 07:24:32;;;;;;;;;;;1.00;93.10;;;;;;5002535;28;19933;-78
2023/01/21 07:26:59;;;;;;;;;;;1.10;93.10;;;;;;5001347;28;19941;-79
2023/01/21 07:29:26;;;;;;;;;;;1.00;93.10;;;;;;4997304;28;19929;-78
2023/01/21 07:31:53;;;;;;;;;;;1.00;93.10;;;;;;5003619;28;19984;-77
2023/01/21 07:34:20;;;;;;;;;;;1.00;93.10;;;;;;5011596;28;20043;-77
2023/01/21 07:36:46;;;;;;;;;;;1.00;93.10;;;;;;5006351;28;20571;-78
2023/01/21 07:39:13;;;;;;;;;;;1.00;93.10;;;;;;4999856;28;19934;-79
2023/01/21 07:41:41;;;;;;;;;;;1.00;93.10;;;;;;5005365;28;19929;-78
2023/01/21 07:44:08;;;;;;;;;;;1.00;93.10;;;;;;5013095;28;21822;-79
2023/01/21 07:46:35;;;;;;;;;;;1.00;93.10;;;;;;5010584;28;20043;-78
2023/01/21 07:49:01;;;;;;;;;;;0.90;93.10;;;;;;5010131;28;19941;-79
2023/01/21 07:51:28;;;;;;;;;;;1.00;93.10;;;;;;5007578;28;20438;-79
2023/01/21 07:53:54;;;;;;;;;;;0.90;93.10;;;;;;5003963;28;19937;-78
2023/01/21 07:56:21;;;;;;;;;;;0.90;93.10;;;;;;5003134;28;19936;-78
2023/01/21 07:58:49;;;;;;;;;;;0.90;93.40;;;;;;5009534;28;20454;-79
2023/01/21 08:01:16;;;;;;;;;;;0.90;93.10;;;;;;5003005;28;19936;-78
2023/01/21 08:03:42;;;;;;;;;;;0.90;93.10;;;;;;5014426;28;19930;-80
2023/01/21 08:06:09;;;;;;;;;;;0.90;93.10;;;;;;5014075;28;19929;-79
2023/01/21 08:08:35;;;;;;;;;;;0.90;93.10;;;;;;5004870;28;19941;-78
2023/01/21 08:11:02;;;;;;;;;;;0.90;93.20;;;;;;5011282;28;20028;-78
2023/01/21 08:13:28;;;;;;;;;;;0.90;93.10;;;;;;5007446;28;19968;-78
2023/01/21 08:15:56;;;;;;;;;;;0.90;93.20;;;;;;5008994;28;20370;-78
2023/01/21 08:18:24;;;;;;;;;;;0.80;93.10;;;;;;5009258;28;20475;-78
2023/01/21 08:20:53;;;;;;;;;;;0.90;93.20;;;;;;5004732;28;19929;-79
2023/01/21 08:23:20;;;;;;;;;;;0.80;93.10;;;;;;5006191;28;19933;-78
2023/01/21 08:25:46;;;;;;;;;;;0.90;93.20;;;;;;5009494;28;19930;-79
2023/01/21 08:28:13;;;;;;;;;;;0.80;93.20;;;;;;5009365;28;20011;-78
2023/01/21 08:30:40;;;;;;;;;;;0.80;93.20;;;;;;5009088;28;20008;-79
2023/01/21 08:33:08;;;;;;;;;;;0.80;93.20;;;;;;5008283;28;19949;-78
2023/01/21 08:35:34;;;;;;;;;;;0.80;93.20;;;;;;5010970;28;19937;-79
2023/01/21 08:38:01;;;;;;;;;;;0.80;93.20;;;;;;5009249;28;20395;-78
2023/01/21 08:40:27;;;;;;;;;;;0.80;93.20;;;;;;5009330;28;19933;-78
2023/01/21 08:42:57;;;;;;;;;;;0.80;93.20;;;;;;5003476;28;19940;-78
2023/01/21 08:45:23;;;;;;;;;;;0.80;93.30;;;;;;5010068;28;19948;-79
2023/01/21 08:47:50;;;;;;;;;;;0.80;93.30;;;;;;5008820;28;20323;-79
2023/01/21 08:50:18;;;;;;;;;;;0.80;93.30;;;;;;5007101;28;20441;-79
2023/01/21 08:52:50;;;;;;;;;;;0.80;93.30;;;;;;5009329;28;19930;-78
2023/01/21 08:55:16;;;;;;;;;;;0.80;93.30;;;;;;5007229;28;19984;-78
2023/01/21 08:57:43;;;;;;;;;;;0.90;93.30;;;;;;5002695;28;19930;-78
2023/01/21 09:00:10;;;;;;;;;;;0.80;93.30;;;;;;5008888;28;20350;-78
2023/01/21 09:02:36;;;;;;;;;;;0.80;93.30;;;;;;5007071;28;19929;-78
2023/01/21 09:05:03;;;;;;;;;;;0.80;93.30;;;;;;5006103;28;19933;-77
2023/01/21 09:07:31;;;;;;;;;;;0.80;93.30;;;;;;5007905;28;20080;-79
2023/01/21 09:09:57;;;;;;;;;;;0.90;93.30;;;;;;4997044;28;20353;-79
2023/01/21 09:12:24;;;;;;;;;;;0.80;93.20;;;;;;4999638;28;19937;-78
2023/01/21 09:14:50;;;;;;;;;;;0.90;93.30;;;;;;5004736;28;19930;-78
2023/01/21 09:17:17;;;;;;;;;;;0.80;93.30;;;;;;5003572;28;20395;-79
2023/01/21 09:19:44;;;;;;;;;;;0.90;93.30;;;;;;5006430;28;19996;-78
2023/01/21 09:22:10;;;;;;;;;;;0.90;93.30;;;;;;5003770;28;19934;-79
2023/01/21 09:24:38;;;;;;;;;;;0.90;93.30;;;;;;5004296;28;20006;-78
2023/01/21 09:27:05;;;;;;;;;;;0.90;93.30;;;;;;5005042;28;19933;-78
2023/01/21 09:29:32;;;;;;;;;;;0.90;93.30;;;;;;5002561;28;19933;-78
2023/01/21 09:31:59;;;;;;;;;;;0.90;93.30;;;;;;5011089;28;19929;-77
2023/01/21 09:34:25;;;;;;;;;;;0.90;93.30;;;;;;5009628;28;20387;-77
2023/01/21 09:36:52;;;;;;;;;;;0.90;93.30;;;;;;5006505;28;19929;-78
2023/01/21 09:39:18;;;;;;;;;;;0.90;93.30;;;;;;5011185;28;19940;-78
2023/01/21 09:41:49;;;;;;;;;;;0.90;93.30;;;;;;5011054;28;19945;-78
2023/01/21 09:44:19;;;;;;;;;;;0.90;93.30;;;;;;5009793;28;19941;-78
2023/01/21 09:46:48;;;;;;;;;;;0.90;93.20;;;;;;5011342;28;19929;-78
2023/01/21 09:49:17;;;;;;;;;;;1.00;93.20;;;;;;5008310;28;20430;-77
2023/01/21 09:51:49;;;;;;;;;;;1.00;93.20;;;;;;5009542;28;20319;-77
2023/01/21 09:54:19;;;;;;;;;;;1.00;93.20;;;;;;5007147;28;19960;-77
2023/01/21 09:56:54;;;;;;;;;;;1.00;93.20;;;;;;5001936;28;19930;-78
2023/01/21 09:59:23;;;;;;;;;;;1.00;93.20;;;;;;4998602;28;19940;-78
2023/01/21 10:01:50;;;;;;;;;;;1.10;93.20;;;;;;5007056;28;19929;-77
2023/01/21 10:04:29;;;;;;;;;;;1.10;93.10;;;;;;5008238;28;19936;-79
2023/01/21 10:06:59;;;;;;;;;;;1.10;93.10;;;;;;5005385;28;20639;-77
2023/01/21 10:09:35;;;;;;;;;;;1.10;93.10;;;;;;4994246;28;20491;-77
2023/01/21 10:12:17;;;;;;;;;;;1.10;93.00;;;;;;5007248;28;19937;-79
2023/01/21 10:14:54;;;;;;;;;;;1.10;93.00;;;;;;5008658;28;19929;-78
2023/01/21 10:17:26;;;;;;;;;;;1.10;93.10;;;;;;5011967;28;19932;-78
2023/01/21 10:19:54;;;;;;;;;;;1.10;93.10;;;;;;5005988;28;19937;-77
2023/01/21 10:22:25;;;;;;;;;;;1.10;93.10;;;;;;5006937;28;19933;-78
2023/01/21 10:24:53;;;;;;;;;;;1.10;93.10;;;;;;5006277;28;20416;-77
2023/01/21 10:27:22;;;;;;;;;;;1.10;93.10;;;;;;5004533;28;20312;-78
2023/01/21 10:29:51;;;;;;;;;;;1.10;93.10;;;;;;5006278;28;19929;-77
2023/01/21 10:32:21;;;;;;;;;;;1.10;93.10;;;;;;5006268;28;19983;-77
2023/01/21 10:34:49;;;;;;;;;;;1.10;93.10;;;;;;5009126;28;19930;-77
2023/01/21 10:37:20;;;;;;;;;;;1.10;93.00;;;;;;4999451;28;19937;-77
2023/01/21 10:39:51;;;;;;;;;;;1.20;93.10;;;;;;4994267;28;20399;-78
2023/01/21 10:42:35;;;;;;;;;;;1.20;93.00;;;;;;5000857;28;19933;-77
2023/01/21 10:45:07;;;;;;;;;;;1.20;93.00;;;;;;5004220;28;19933;-77
2023/01/21 10:47:38;;;;;;;;;;;1.20;93.00;;;;;;5009875;28;20051;-78
2023/01/21 10:50:19;;;;;;;;;;;1.20;93.00;;;;;;5001372;28;19936;-78
2023/01/21 10:52:49;;;;;;;;;;;1.20;93.00;;;;;;5010290;28;19929;-78
2023/01/21 10:55:21;;;;;;;;;;;1.20;93.00;;;;;;5008575;28;19937;-77
2023/01/21 10:57:53;;;;;;;;;;;1.20;93.00;;;;;;5001581;28;19933;-77
2023/01/21 11:00:21;;;;;;;;;;;1.20;93.00;;;;;;4996813;28;19937;-79
2023/01/21 11:02:50;;;;;;;;;;;1.20;93.00;;;;;;5002759;28;19929;-78
2023/01/21 11:05:18;;;;;;;;;;;1.20;93.00;;;;;;5004825;28;19936;-78
2023/01/21 11:07:46;;;;;;;;;;;1.20;93.00;;;;;;5004460;28;19936;-78
2023/01/21 11:10:14;;;;;;;;;;;1.20;93.00;;;;;;4997618;28;19937;-78
2023/01/21 11:12:40;;;;;;;;;;;1.30;93.00;;;;;;4999072;28;20011;-77
2023/01/21 11:15:12;;;;;;;;;;;1.20;93.00;;;;;;5004407;28;19929;-78
2023/01/21 11:17:40;;;;;;;;;;;1.30;93.00;;;;;;5000613;28;19929;-78
2023/01/21 11:20:16;;;;;;;;;;;1.20;93.00;;;;;;5003130;28;20010;-78
2023/01/21 11:22:44;;;;;;;;;;;1.30;93.10;;;;;;5001783;28;19934;-78
2023/01/21 11:25:23;;;;;;;;;;;1.20;93.10;;;;;;5002085;28;19972;-79
2023/01/21 11:27:50;;;;;;;;;;;1.20;93.10;;;;;;5001217;28;19937;-77
2023/01/21 11:30:29;;;;;;;;;;;1.30;93.10;;;;;;5006624;28;19992;-77
2023/01/21 11:33:10;;;;;;;;;;;1.30;93.10;;;;;;5011130;28;19933;-77
2023/01/21 11:35:37;;;;;;;;;;;1.30;93.10;;;;;;5003213;28;20035;-77
2023/01/21 11:38:04;;;;;;;;;;;1.30;93.10;;;;;;5003815;28;19936;-77
2023/01/21 11:40:31;;;;;;;;;;;1.30;93.10;;;;;;5013230;28;20354;-77
2023/01/21 11:42:58;;;;;;;;;;;1.30;93.10;;;;;;4990563;28;19937;-78
2023/01/21 11:45:27;;;;;;;;;;;1.30;93.10;;;;;;4993614;28;20098;-76
2023/01/21 11:47:55;;;;;;;;;;;1.30;93.10;;;;;;4994575;28;19934;-77
2023/01/21 11:50:24;;;;;;;;;;;1.30;93.10;;;;;;4996846;28;20403;-77
2023/01/21 11:53:10;;;;;;;;;;;1.30;93.10;;;;;;4997106;28;20526;-76
2023/01/21 11:55:39;;;;;;;;;;;1.30;93.10;;;;;;5004665;28;19929;-78
2023/01/21 11:58:06;;;;;;;;;;;1.30;93.10;;;;;;4985276;28;19934;-76
2023/01/21 12:00:34;;;;;;;;;;;1.30;93.10;;;;;;4997427;28;20419;-76
2023/01/21 12:03:04;;;;;;;;;;;1.30;93.10;;;;;;5004264;28;19989;-76
2023/01/21 12:05:32;;;;;;;;;;;1.30;93.10;;;;;;5001788;28;19930;-76
2023/01/21 12:07:59;;;;;;;;;;;1.30;93.10;;;;;;4999077;28;19937;-77
2023/01/21 12:10:27;;;;;;;;;;;1.30;93.10;;;;;;5002154;28;20399;-77
2023/01/21 12:13:11;;;;;;;;;;;1.30;93.10;;;;;;4999751;28;20355;-77
2023/01/21 12:15:44;;;;;;;;;;;1.30;93.20;;;;;;5000849;28;19934;-76
2023/01/21 12:18:16;;;;;;;;;;;1.30;93.20;;;;;;5006920;28;20434;-77
2023/01/21 12:20:47;;;;;;;;;;;1.30;93.20;;;;;;4995300;28;20355;-77
2023/01/21 12:23:21;;;;;;;;;;;1.30;93.20;;;;;;5006015;28;20019;-76
2023/01/21 12:25:51;;;;;;;;;;;1.30;93.50;;;;;;5001119;28;20296;-75
2023/01/21 12:28:24;;;;;;;;;;;1.30;93.20;;;;;;5008690;28;19934;-76
2023/01/21 12:30:54;;;;;;;;;;;1.30;93.20;;;;;;5005754;28;19929;-77
2023/01/21 12:33:36;;;;;;;;;;;1.30;93.20;;;;;;5006851;28;19929;-76
2023/01/21 12:36:04;;;;;;;;;;;1.30;93.20;;;;;;5005030;28;19929;-76
2023/01/21 12:38:33;;;;;;;;;;;1.30;93.30;;;;;;5008274;28;19941;-76
2023/01/21 12:41:01;;;;;;;;;;;1.30;93.30;;;;;;5015195;28;19937;-75
2023/01/21 12:43:32;;;;;;;;;;;1.30;93.30;;;;;;5014279;28;19928;-76
2023/01/21 12:46:01;;;;;;;;;;;1.30;93.30;;;;;;5017065;28;19933;-77
2023/01/21 12:48:31;;;;;;;;;;;1.30;93.30;;;;;;5003078;28;20024;-75
2023/01/21 12:51:01;;;;;;;;;;;1.30;93.30;;;;;;5006932;28;19936;-77
2023/01/21 12:53:31;;;;;;;;;;;1.30;93.30;;;;;;5012485;28;19930;-77
2023/01/21 12:56:16;;;;;;;;;;;1.30;93.30;;;;;;5013705;28;20020;-76
2023/01/21 12:58:45;;;;;;;;;;;1.30;93.30;;;;;;5007528;28;19940;-76
2023/01/21 13:01:13;;;;;;;;;;;1.30;93.30;;;;;;5003302;28;20206;-76
2023/01/21 13:03:48;;;;;;;;;;;1.30;93.30;;;;;;5012791;28;20004;-77
2023/01/21 13:06:18;;;;;;;;;;;1.30;93.30;;;;;;5008856;28;19934;-77
2023/01/21 13:08:49;;;;;;;;;;;1.40;93.30;;;;;;5008000;28;19938;-77
2023/01/21 13:11:18;;;;;;;;;;;1.30;93.30;;;;;;5004231;28;20012;-76
2023/01/21 13:13:49;;;;;;;;;;;1.40;93.40;;;;;;5006941;28;19933;-76
2023/01/21 13:16:16;;;;;;;;;;;1.30;93.40;;;;;;5001489;28;20298;-76
2023/01/21 13:18:46;;;;;;;;;;;1.30;93.30;;;;;;5010010;28;19929;-76
2023/01/21 13:21:16;;;;;;;;;;;1.40;93.40;;;;;;5008171;28;19932;-76
2023/01/21 13:23:45;;;;;;;;;;;1.30;93.30;;;;;;5008712;28;19929;-77
2023/01/21 13:26:14;;;;;;;;;;;1.40;93.40;;;;;;5002535;28;20442;-77
2023/01/21 13:28:42;;;;;;;;;;;1.30;93.30;;;;;;5004445;28;19929;-76
2023/01/21 13:31:12;;;;;;;;;;;1.40;93.40;;;;;;5007891;28;20414;-76
2023/01/21 13:33:44;;;;;;;;;;;1.30;93.40;;;;;;4998921;28;20056;-76
2023/01/21 13:36:16;;;;;;;;;;;1.30;93.40;;;;;;5004694;28;19929;-76
2023/01/21 13:38:47;;;;;;;;;;;1.40;93.40;;;;;;5008108;28;19996;-76
2023/01/21 13:41:22;;;;;;;;;;;1.40;93.40;;;;;;5004759;28;19930;-76
2023/01/21 13:43:56;;;;;;;;;;;1.40;93.30;;;;;;5008949;28;19933;-75
2023/01/21 13:46:34;;;;;;;;;;;1.40;93.30;;;;;;4999643;28;19937;-77
2023/01/21 13:49:07;;;;;;;;;;;1.40;93.30;;;;;;5004840;28;19936;-77
2023/01/21 13:51:43;;;;;;;;;;;1.40;93.30;;;;;;5007130;28;20370;-76
2023/01/21 13:54:19;;;;;;;;;;;1.40;93.30;;;;;;5001597;28;20335;-76
2023/01/21 13:56:50;;;;;;;;;;;1.40;93.30;;;;;;5007448;28;20545;-76
2023/01/21 13:59:21;;;;;;;;;;;1.40;93.30;;;;;;5005092;28;19944;-77
2023/01/21 14:01:51;;;;;;;;;;;1.40;93.30;;;;;;4999616;28;19960;-77
2023/01/21 14:04:22;;;;;;;;;;;1.40;93.30;;;;;;4994866;28;19929;-76
2023/01/21 14:06:53;;;;;;;;;;;1.40;93.30;;;;;;5009636;28;19937;-76
2023/01/21 14:09:22;;;;;;;;;;;1.50;93.30;;;;;;5001037;28;20351;-75
2023/01/21 14:11:50;;;;;;;;;;;1.50;93.30;;;;;;5004619;28;20379;-75
2023/01/21 14:14:25;;;;;;;;;;;1.40;93.20;;;;;;5012141;28;20064;-76
2023/01/21 14:17:06;;;;;;;;;;;1.50;93.20;;;;;;5005261;28;19942;-76
2023/01/21 14:19:41;;;;;;;;;;;1.50;93.30;;;;;;5006421;28;20017;-76
2023/01/21 14:22:18;;;;;;;;;;;1.40;93.30;;;;;;5001022;28;20423;-76
2023/01/21 14:24:49;;;;;;;;;;;1.50;93.30;;;;;;4997382;28;19960;-77
2023/01/21 14:27:19;;;;;;;;;;;1.50;93.40;;;;;;4999664;28;20427;-75
2023/01/21 14:29:48;;;;;;;;;;;1.50;93.40;;;;;;5001243;28;20028;-75
2023/01/21 14:32:19;;;;;;;;;;;1.40;93.40;;;;;;5006653;28;19941;-75
2023/01/21 14:34:50;;;;;;;;;;;1.50;93.50;;;;;;4999714;28;19933;-75
2023/01/21 14:37:23;;;;;;;;;;;1.50;93.60;;;;;;5005911;28;19959;-75
2023/01/21 14:39:53;;;;;;;;;;;1.50;93.60;;;;;;5003057;28;19929;-74
2023/01/21 14:42:25;;;;;;;;;;;1.50;93.60;;;;;;5001846;28;19941;-75
2023/01/21 14:45:02;;;;;;;;;;;1.50;93.60;;;;;;5004457;28;19937;-75